Little Kansas, Pennsylvania
Current Conditions -  °F | °C
As of 2:53 PM on Saturday 25 Oct 2014 (Local Time) from KUNV Reporting Station
Clear Clear  
Wind Chill: 66°   Ceiling: Unl
Heat Index: 66°   Visibility: 10mi
Dew Point: 48°   Wind: 20mph
Humidity: 52%   Direction: 260°W
Pressure: 29.74"   Gusts: 28mph
Location:  40.5138°N, 77.7384°W
Report Text: KUNV 251853Z 26017G24KT 10SM SKC 19/09 A2974
Loading
Personal Weather Stations






























Interactive Weather Map
Tropical Storm Tracking
New forecast layout! Learn more

10-Day Weather Forecast

Advertisements
Track Severe Weather on mobile